sensor_id;sensor_type;location;lat;lon;timestamp;P1;durP1;ratioP1;P2;durP2;ratioP2
56122;SDS011;42426;46.104;19.656;2023-12-20T00:00:08;91.45;;;54.00;;
56122;SDS011;42426;46.104;19.656;2023-12-20T00:02:34;95.47;;;55.97;;
56122;SDS011;42426;46.104;19.656;2023-12-20T00:05:01;89.03;;;54.00;;
56122;SDS011;42426;46.104;19.656;2023-12-20T00:07:27;90.85;;;52.88;;
56122;SDS011;42426;46.104;19.656;2023-12-20T00:09:53;95.32;;;53.75;;
56122;SDS011;42426;46.104;19.656;2023-12-20T00:12:19;92.13;;;57.15;;
56122;SDS011;42426;46.104;19.656;2023-12-20T00:14:45;93.88;;;54.88;;
56122;SDS011;42426;46.104;19.656;2023-12-20T00:17:11;97.15;;;55.65;;
56122;SDS011;42426;46.104;19.656;2023-12-20T00:19:37;94.30;;;54.40;;
56122;SDS011;42426;46.104;19.656;2023-12-20T00:22:03;96.13;;;54.15;;
56122;SDS011;42426;46.104;19.656;2023-12-20T00:24:30;98.57;;;56.05;;
56122;SDS011;42426;46.104;19.656;2023-12-20T00:26:56;97.43;;;57.80;;
56122;SDS011;42426;46.104;19.656;2023-12-20T00:29:25;95.20;;;54.28;;
56122;SDS011;42426;46.104;19.656;2023-12-20T00:31:51;92.03;;;52.03;;
56122;SDS011;42426;46.104;19.656;2023-12-20T00:34:17;93.50;;;52.88;;
56122;SDS011;42426;46.104;19.656;2023-12-20T00:36:43;92.05;;;51.00;;
56122;SDS011;42426;46.104;19.656;2023-12-20T00:39:09;92.18;;;51.83;;
56122;SDS011;42426;46.104;19.656;2023-12-20T00:41:35;85.93;;;49.22;;
56122;SDS011;42426;46.104;19.656;2023-12-20T00:44:01;90.78;;;50.40;;
56122;SDS011;42426;46.104;19.656;2023-12-20T00:46:28;88.43;;;52.55;;
56122;SDS011;42426;46.104;19.656;2023-12-20T00:48:54;91.30;;;52.38;;
56122;SDS011;42426;46.104;19.656;2023-12-20T00:51:20;86.75;;;52.58;;
56122;SDS011;42426;46.104;19.656;2023-12-20T00:53:47;82.53;;;49.83;;
56122;SDS011;42426;46.104;19.656;2023-12-20T00:56:14;84.70;;;49.78;;
56122;SDS011;42426;46.104;19.656;2023-12-20T00:58:40;88.38;;;50.17;;
56122;SDS011;42426;46.104;19.656;2023-12-20T01:01:06;84.57;;;48.15;;
56122;SDS011;42426;46.104;19.656;2023-12-20T01:03:32;84.35;;;49.72;;
56122;SDS011;42426;46.104;19.656;2023-12-20T01:05:59;81.57;;;47.72;;
56122;SDS011;42426;46.104;19.656;2023-12-20T01:08:26;78.47;;;50.03;;
56122;SDS011;42426;46.104;19.656;2023-12-20T01:10:52;85.80;;;48.35;;
56122;SDS011;42426;46.104;19.656;2023-12-20T01:13:18;76.80;;;45.90;;
56122;SDS011;42426;46.104;19.656;2023-12-20T01:15:44;83.43;;;46.85;;
56122;SDS011;42426;46.104;19.656;2023-12-20T01:18:10;84.57;;;46.92;;
56122;SDS011;42426;46.104;19.656;2023-12-20T01:20:37;76.50;;;45.28;;
56122;SDS011;42426;46.104;19.656;2023-12-20T01:23:03;76.63;;;44.75;;
56122;SDS011;42426;46.104;19.656;2023-12-20T01:25:29;84.50;;;46.55;;
56122;SDS011;42426;46.104;19.656;2023-12-20T01:27:55;79.63;;;47.03;;
56122;SDS011;42426;46.104;19.656;2023-12-20T01:30:21;76.85;;;46.28;;
56122;SDS011;42426;46.104;19.656;2023-12-20T01:32:47;77.53;;;46.70;;
56122;SDS011;42426;46.104;19.656;2023-12-20T01:35:14;84.78;;;44.80;;
56122;SDS011;42426;46.104;19.656;2023-12-20T01:37:40;77.13;;;46.75;;
56122;SDS011;42426;46.104;19.656;2023-12-20T01:40:06;81.57;;;46.00;;
56122;SDS011;42426;46.104;19.656;2023-12-20T01:42:33;86.38;;;46.85;;
56122;SDS011;42426;46.104;19.656;2023-12-20T01:44:59;78.10;;;44.13;;
56122;SDS011;42426;46.104;19.656;2023-12-20T01:47:26;77.97;;;45.30;;
56122;SDS011;42426;46.104;19.656;2023-12-20T01:49:52;77.55;;;45.20;;
56122;SDS011;42426;46.104;19.656;2023-12-20T01:52:19;82.03;;;46.53;;
56122;SDS011;42426;46.104;19.656;2023-12-20T01:54:45;79.13;;;43.65;;
56122;SDS011;42426;46.104;19.656;2023-12-20T01:57:12;79.07;;;46.03;;
56122;SDS011;42426;46.104;19.656;2023-12-20T01:59:39;78.47;;;44.88;;
56122;SDS011;42426;46.104;19.656;2023-12-20T02:02:05;75.55;;;45.67;;
56122;SDS011;42426;46.104;19.656;2023-12-20T02:04:33;78.55;;;45.15;;
56122;SDS011;42426;46.104;19.656;2023-12-20T02:06:59;77.88;;;44.90;;
56122;SDS011;42426;46.104;19.656;2023-12-20T02:09:26;72.47;;;46.80;;
56122;SDS011;42426;46.104;19.656;2023-12-20T02:11:52;78.47;;;43.13;;
56122;SDS011;42426;46.104;19.656;2023-12-20T02:14:18;75.07;;;44.40;;
56122;SDS011;42426;46.104;19.656;2023-12-20T02:16:46;82.88;;;43.90;;
56122;SDS011;42426;46.104;19.656;2023-12-20T02:19:13;76.90;;;43.13;;
56122;SDS011;42426;46.104;19.656;2023-12-20T02:21:40;67.45;;;40.72;;
56122;SDS011;42426;46.104;19.656;2023-12-20T02:24:06;75.90;;;43.67;;
56122;SDS011;42426;46.104;19.656;2023-12-20T02:26:32;73.43;;;42.72;;
56122;SDS011;42426;46.104;19.656;2023-12-20T02:28:59;73.88;;;43.28;;
56122;SDS011;42426;46.104;19.656;2023-12-20T02:31:25;77.75;;;43.28;;
56122;SDS011;42426;46.104;19.656;2023-12-20T02:33:52;65.63;;;41.63;;
56122;SDS011;42426;46.104;19.656;2023-12-20T02:36:19;70.68;;;42.13;;
56122;SDS011;42426;46.104;19.656;2023-12-20T02:38:45;70.90;;;42.03;;
56122;SDS011;42426;46.104;19.656;2023-12-20T02:41:12;75.00;;;40.92;;
56122;SDS011;42426;46.104;19.656;2023-12-20T02:43:38;66.50;;;40.00;;
56122;SDS011;42426;46.104;19.656;2023-12-20T02:46:04;70.00;;;40.53;;
56122;SDS011;42426;46.104;19.656;2023-12-20T02:48:30;70.05;;;41.35;;
56122;SDS011;42426;46.104;19.656;2023-12-20T02:50:57;77.72;;;44.20;;
56122;SDS011;42426;46.104;19.656;2023-12-20T02:53:23;77.28;;;43.95;;
56122;SDS011;42426;46.104;19.656;2023-12-20T02:55:49;71.13;;;41.85;;
56122;SDS011;42426;46.104;19.656;2023-12-20T02:58:15;70.70;;;40.53;;
56122;SDS011;42426;46.104;19.656;2023-12-20T03:00:42;80.47;;;42.97;;
56122;SDS011;42426;46.104;19.656;2023-12-20T03:03:10;68.78;;;41.63;;
56122;SDS011;42426;46.104;19.656;2023-12-20T03:05:36;71.32;;;40.65;;
56122;SDS011;42426;46.104;19.656;2023-12-20T03:08:03;74.25;;;43.30;;
56122;SDS011;42426;46.104;19.656;2023-12-20T03:10:29;73.47;;;44.53;;
56122;SDS011;42426;46.104;19.656;2023-12-20T03:12:55;66.40;;;39.88;;
56122;SDS011;42426;46.104;19.656;2023-12-20T03:15:21;69.13;;;37.70;;
56122;SDS011;42426;46.104;19.656;2023-12-20T03:17:47;70.15;;;41.72;;
56122;SDS011;42426;46.104;19.656;2023-12-20T03:20:14;70.78;;;39.45;;
56122;SDS011;42426;46.104;19.656;2023-12-20T03:22:40;70.35;;;38.03;;
56122;SDS011;42426;46.104;19.656;2023-12-20T03:25:06;70.65;;;39.13;;
56122;SDS011;42426;46.104;19.656;2023-12-20T03:27:32;63.95;;;39.08;;
56122;SDS011;42426;46.104;19.656;2023-12-20T03:29:58;65.13;;;37.90;;
56122;SDS011;42426;46.104;19.656;2023-12-20T03:32:24;70.53;;;39.22;;
56122;SDS011;42426;46.104;19.656;2023-12-20T03:34:50;71.63;;;39.53;;
56122;SDS011;42426;46.104;19.656;2023-12-20T03:37:17;68.32;;;38.22;;
56122;SDS011;42426;46.104;19.656;2023-12-20T03:39:43;66.82;;;37.53;;
56122;SDS011;42426;46.104;19.656;2023-12-20T03:42:10;69.93;;;38.72;;
56122;SDS011;42426;46.104;19.656;2023-12-20T03:44:39;65.63;;;38.75;;
56122;SDS011;42426;46.104;19.656;2023-12-20T03:47:05;67.00;;;37.70;;
56122;SDS011;42426;46.104;19.656;2023-12-20T03:49:31;63.03;;;39.10;;
56122;SDS011;42426;46.104;19.656;2023-12-20T03:51:57;70.47;;;37.47;;
56122;SDS011;42426;46.104;19.656;2023-12-20T03:54:24;62.63;;;37.10;;
56122;SDS011;42426;46.104;19.656;2023-12-20T03:56:50;68.63;;;39.05;;
56122;SDS011;42426;46.104;19.656;2023-12-20T03:59:16;67.22;;;38.60;;
56122;SDS011;42426;46.104;19.656;2023-12-20T04:01:43;69.45;;;38.60;;
56122;SDS011;42426;46.104;19.656;2023-12-20T04:04:12;64.45;;;36.17;;
56122;SDS011;42426;46.104;19.656;2023-12-20T04:06:39;67.85;;;35.33;;
56122;SDS011;42426;46.104;19.656;2023-12-20T04:09:05;63.17;;;36.08;;
56122;SDS011;42426;46.104;19.656;2023-12-20T04:11:34;65.20;;;37.00;;
56122;SDS011;42426;46.104;19.656;2023-12-20T04:14:00;62.38;;;38.42;;
56122;SDS011;42426;46.104;19.656;2023-12-20T04:16:26;64.15;;;37.17;;
56122;SDS011;42426;46.104;19.656;2023-12-20T04:18:52;64.20;;;38.45;;
56122;SDS011;42426;46.104;19.656;2023-12-20T04:21:18;63.03;;;36.22;;
56122;SDS011;42426;46.104;19.656;2023-12-20T04:23:44;64.85;;;37.13;;
56122;SDS011;42426;46.104;19.656;2023-12-20T04:26:10;68.68;;;38.65;;
56122;SDS011;42426;46.104;19.656;2023-12-20T04:28:36;62.75;;;36.83;;
56122;SDS011;42426;46.104;19.656;2023-12-20T04:31:03;65.93;;;37.25;;
56122;SDS011;42426;46.104;19.656;2023-12-20T04:33:29;57.67;;;33.95;;
56122;SDS011;42426;46.104;19.656;2023-12-20T04:35:55;67.70;;;36.30;;
56122;SDS011;42426;46.104;19.656;2023-12-20T04:38:22;60.60;;;34.80;;
56122;SDS011;42426;46.104;19.656;2023-12-20T04:40:48;62.47;;;35.92;;
56122;SDS011;42426;46.104;19.656;2023-12-20T04:43:14;60.28;;;34.90;;
56122;SDS011;42426;46.104;19.656;2023-12-20T04:45:40;56.40;;;34.22;;
56122;SDS011;42426;46.104;19.656;2023-12-20T04:48:07;61.42;;;35.58;;
56122;SDS011;42426;46.104;19.656;2023-12-20T04:50:33;64.95;;;37.78;;
56122;SDS011;42426;46.104;19.656;2023-12-20T04:52:59;63.08;;;37.85;;
56122;SDS011;42426;46.104;19.656;2023-12-20T04:55:25;63.10;;;35.47;;
56122;SDS011;42426;46.104;19.656;2023-12-20T04:57:53;58.92;;;36.25;;
56122;SDS011;42426;46.104;19.656;2023-12-20T05:00:19;60.55;;;34.28;;
56122;SDS011;42426;46.104;19.656;2023-12-20T05:02:46;61.80;;;35.30;;
56122;SDS011;42426;46.104;19.656;2023-12-20T05:05:12;65.35;;;35.53;;
56122;SDS011;42426;46.104;19.656;2023-12-20T05:07:40;57.90;;;33.30;;
56122;SDS011;42426;46.104;19.656;2023-12-20T05:10:06;59.75;;;34.45;;
56122;SDS011;42426;46.104;19.656;2023-12-20T05:12:36;64.00;;;33.97;;
56122;SDS011;42426;46.104;19.656;2023-12-20T05:15:03;61.63;;;33.20;;
56122;SDS011;42426;46.104;19.656;2023-12-20T05:17:30;56.55;;;33.13;;
56122;SDS011;42426;46.104;19.656;2023-12-20T05:19:56;61.88;;;33.28;;
56122;SDS011;42426;46.104;19.656;2023-12-20T05:22:22;62.55;;;37.00;;
56122;SDS011;42426;46.104;19.656;2023-12-20T05:24:48;62.97;;;34.50;;
56122;SDS011;42426;46.104;19.656;2023-12-20T05:27:14;59.63;;;35.10;;
56122;SDS011;42426;46.104;19.656;2023-12-20T05:29:40;58.70;;;34.92;;
56122;SDS011;42426;46.104;19.656;2023-12-20T05:32:07;62.97;;;34.90;;
56122;SDS011;42426;46.104;19.656;2023-12-20T05:34:33;65.55;;;34.25;;
56122;SDS011;42426;46.104;19.656;2023-12-20T05:36:59;55.75;;;33.80;;
56122;SDS011;42426;46.104;19.656;2023-12-20T05:39:26;67.47;;;35.90;;
56122;SDS011;42426;46.104;19.656;2023-12-20T05:41:53;58.13;;;34.25;;
56122;SDS011;42426;46.104;19.656;2023-12-20T05:44:19;66.68;;;34.78;;
56122;SDS011;42426;46.104;19.656;2023-12-20T05:46:45;62.85;;;37.55;;
56122;SDS011;42426;46.104;19.656;2023-12-20T05:49:11;53.78;;;33.63;;
56122;SDS011;42426;46.104;19.656;2023-12-20T05:51:38;62.88;;;34.60;;
56122;SDS011;42426;46.104;19.656;2023-12-20T05:54:04;59.50;;;35.30;;
56122;SDS011;42426;46.104;19.656;2023-12-20T05:56:30;65.15;;;37.63;;
56122;SDS011;42426;46.104;19.656;2023-12-20T05:58:57;62.15;;;37.38;;
56122;SDS011;42426;46.104;19.656;2023-12-20T06:01:24;68.80;;;38.03;;
56122;SDS011;42426;46.104;19.656;2023-12-20T06:03:50;66.03;;;36.47;;
56122;SDS011;42426;46.104;19.656;2023-12-20T06:06:16;69.18;;;37.85;;
56122;SDS011;42426;46.104;19.656;2023-12-20T06:08:43;66.35;;;36.03;;
56122;SDS011;42426;46.104;19.656;2023-12-20T06:11:09;69.70;;;37.75;;
56122;SDS011;42426;46.104;19.656;2023-12-20T06:13:35;63.28;;;35.15;;
56122;SDS011;42426;46.104;19.656;2023-12-20T06:16:01;66.40;;;38.00;;
56122;SDS011;42426;46.104;19.656;2023-12-20T06:18:27;70.53;;;38.70;;
56122;SDS011;42426;46.104;19.656;2023-12-20T06:20:54;66.20;;;37.00;;
56122;SDS011;42426;46.104;19.656;2023-12-20T06:23:20;71.70;;;39.08;;
56122;SDS011;42426;46.104;19.656;2023-12-20T06:25:46;87.75;;;42.47;;
56122;SDS011;42426;46.104;19.656;2023-12-20T06:28:12;81.60;;;40.83;;
56122;SDS011;42426;46.104;19.656;2023-12-20T06:30:40;84.68;;;42.83;;
56122;SDS011;42426;46.104;19.656;2023-12-20T06:33:06;73.63;;;39.95;;
56122;SDS011;42426;46.104;19.656;2023-12-20T06:35:32;71.53;;;37.85;;
56122;SDS011;42426;46.104;19.656;2023-12-20T06:37:58;82.82;;;41.47;;
56122;SDS011;42426;46.104;19.656;2023-12-20T06:40:24;72.03;;;38.72;;
56122;SDS011;42426;46.104;19.656;2023-12-20T06:42:51;76.68;;;39.35;;
56122;SDS011;42426;46.104;19.656;2023-12-20T06:45:17;73.68;;;38.63;;
56122;SDS011;42426;46.104;19.656;2023-12-20T06:47:46;72.53;;;39.13;;
56122;SDS011;42426;46.104;19.656;2023-12-20T06:50:12;79.22;;;43.20;;
56122;SDS011;42426;46.104;19.656;2023-12-20T06:52:38;76.63;;;41.30;;
56122;SDS011;42426;46.104;19.656;2023-12-20T06:55:04;73.80;;;41.15;;
56122;SDS011;42426;46.104;19.656;2023-12-20T06:57:30;74.72;;;44.72;;
56122;SDS011;42426;46.104;19.656;2023-12-20T06:59:56;91.97;;;49.63;;
56122;SDS011;42426;46.104;19.656;2023-12-20T07:02:23;95.78;;;49.20;;
56122;SDS011;42426;46.104;19.656;2023-12-20T07:04:49;86.47;;;47.70;;
56122;SDS011;42426;46.104;19.656;2023-12-20T07:07:15;90.60;;;48.60;;
56122;SDS011;42426;46.104;19.656;2023-12-20T07:09:41;88.82;;;48.40;;
56122;SDS011;42426;46.104;19.656;2023-12-20T07:12:08;85.03;;;49.78;;
56122;SDS011;42426;46.104;19.656;2023-12-20T07:14:34;74.60;;;42.30;;
56122;SDS011;42426;46.104;19.656;2023-12-20T07:17:00;73.38;;;40.90;;
56122;SDS011;42426;46.104;19.656;2023-12-20T07:19:26;67.50;;;37.33;;
56122;SDS011;42426;46.104;19.656;2023-12-20T07:21:54;67.25;;;37.60;;
56122;SDS011;42426;46.104;19.656;2023-12-20T07:24:20;69.03;;;35.67;;
56122;SDS011;42426;46.104;19.656;2023-12-20T07:26:47;60.50;;;35.17;;
56122;SDS011;42426;46.104;19.656;2023-12-20T07:29:13;66.15;;;36.13;;
56122;SDS011;42426;46.104;19.656;2023-12-20T07:31:39;63.15;;;33.85;;
56122;SDS011;42426;46.104;19.656;2023-12-20T07:34:05;60.13;;;32.60;;
56122;SDS011;42426;46.104;19.656;2023-12-20T07:36:31;61.13;;;35.08;;
56122;SDS011;42426;46.104;19.656;2023-12-20T07:38:57;61.17;;;33.78;;
56122;SDS011;42426;46.104;19.656;2023-12-20T07:41:24;70.65;;;37.55;;
56122;SDS011;42426;46.104;19.656;2023-12-20T07:43:51;76.18;;;38.70;;
56122;SDS011;42426;46.104;19.656;2023-12-20T07:46:18;72.20;;;39.20;;
56122;SDS011;42426;46.104;19.656;2023-12-20T07:48:48;67.85;;;38.00;;
56122;SDS011;42426;46.104;19.656;2023-12-20T07:51:16;71.60;;;38.60;;
56122;SDS011;42426;46.104;19.656;2023-12-20T07:53:43;67.90;;;39.17;;
56122;SDS011;42426;46.104;19.656;2023-12-20T07:56:19;74.00;;;39.20;;
56122;SDS011;42426;46.104;19.656;2023-12-20T07:58:45;70.15;;;39.20;;
56122;SDS011;42426;46.104;19.656;2023-12-20T08:01:13;74.05;;;41.47;;
56122;SDS011;42426;46.104;19.656;2023-12-20T08:03:39;77.20;;;42.15;;
56122;SDS011;42426;46.104;19.656;2023-12-20T08:06:05;74.60;;;43.15;;
56122;SDS011;42426;46.104;19.656;2023-12-20T08:08:32;72.80;;;37.60;;
56122;SDS011;42426;46.104;19.656;2023-12-20T08:10:58;68.47;;;37.70;;
56122;SDS011;42426;46.104;19.656;2023-12-20T08:13:25;63.75;;;34.90;;
56122;SDS011;42426;46.104;19.656;2023-12-20T08:15:52;61.45;;;35.53;;
56122;SDS011;42426;46.104;19.656;2023-12-20T08:18:18;63.85;;;36.00;;
56122;SDS011;42426;46.104;19.656;2023-12-20T08:20:44;66.82;;;37.08;;
56122;SDS011;42426;46.104;19.656;2023-12-20T08:23:12;67.70;;;36.25;;
56122;SDS011;42426;46.104;19.656;2023-12-20T08:25:38;65.32;;;36.80;;
56122;SDS011;42426;46.104;19.656;2023-12-20T08:28:04;56.22;;;32.50;;
56122;SDS011;42426;46.104;19.656;2023-12-20T08:30:30;60.88;;;34.05;;
56122;SDS011;42426;46.104;19.656;2023-12-20T08:32:59;68.90;;;37.15;;
56122;SDS011;42426;46.104;19.656;2023-12-20T08:35:25;77.70;;;38.03;;
56122;SDS011;42426;46.104;19.656;2023-12-20T08:37:51;68.07;;;35.78;;
56122;SDS011;42426;46.104;19.656;2023-12-20T08:40:17;63.33;;;36.05;;
56122;SDS011;42426;46.104;19.656;2023-12-20T08:42:43;66.60;;;36.70;;
56122;SDS011;42426;46.104;19.656;2023-12-20T08:45:09;67.43;;;37.22;;
56122;SDS011;42426;46.104;19.656;2023-12-20T08:47:36;61.28;;;32.65;;
56122;SDS011;42426;46.104;19.656;2023-12-20T08:50:02;52.90;;;32.80;;
56122;SDS011;42426;46.104;19.656;2023-12-20T08:52:28;61.45;;;32.33;;
56122;SDS011;42426;46.104;19.656;2023-12-20T08:54:55;62.97;;;34.65;;
56122;SDS011;42426;46.104;19.656;2023-12-20T08:57:22;64.38;;;36.15;;
56122;SDS011;42426;46.104;19.656;2023-12-20T08:59:51;62.95;;;34.03;;
56122;SDS011;42426;46.104;19.656;2023-12-20T09:02:18;68.05;;;36.10;;
56122;SDS011;42426;46.104;19.656;2023-12-20T09:04:44;67.80;;;37.35;;
56122;SDS011;42426;46.104;19.656;2023-12-20T09:07:23;69.00;;;36.10;;
56122;SDS011;42426;46.104;19.656;2023-12-20T09:09:49;67.53;;;39.15;;
56122;SDS011;42426;46.104;19.656;2023-12-20T09:12:19;66.22;;;34.25;;
56122;SDS011;42426;46.104;19.656;2023-12-20T09:14:46;62.13;;;34.92;;
56122;SDS011;42426;46.104;19.656;2023-12-20T09:17:12;61.90;;;33.78;;
56122;SDS011;42426;46.104;19.656;2023-12-20T09:19:38;64.00;;;38.95;;
56122;SDS011;42426;46.104;19.656;2023-12-20T09:22:05;61.72;;;39.63;;
56122;SDS011;42426;46.104;19.656;2023-12-20T09:24:31;72.35;;;38.15;;
56122;SDS011;42426;46.104;19.656;2023-12-20T09:26:57;63.70;;;36.10;;
56122;SDS011;42426;46.104;19.656;2023-12-20T09:29:23;64.35;;;36.42;;
56122;SDS011;42426;46.104;19.656;2023-12-20T09:31:50;67.30;;;37.08;;
56122;SDS011;42426;46.104;19.656;2023-12-20T09:34:16;61.63;;;36.45;;
56122;SDS011;42426;46.104;19.656;2023-12-20T09:39:45;59.42;;;32.38;;
56122;SDS011;42426;46.104;19.656;2023-12-20T09:54:14;72.82;;;36.55;;
56122;SDS011;42426;46.104;19.656;2023-12-20T09:59:44;58.08;;;32.72;;
56122;SDS011;42426;46.104;19.656;2023-12-20T10:02:12;61.35;;;32.63;;
56122;SDS011;42426;46.104;19.656;2023-12-20T10:04:46;51.60;;;30.33;;
56122;SDS011;42426;46.104;19.656;2023-12-20T10:07:15;49.67;;;31.10;;
56122;SDS011;42426;46.104;19.656;2023-12-20T10:09:42;59.60;;;32.33;;
56122;SDS011;42426;46.104;19.656;2023-12-20T10:12:08;57.05;;;31.10;;
56122;SDS011;42426;46.104;19.656;2023-12-20T10:14:35;54.05;;;31.23;;
56122;SDS011;42426;46.104;19.656;2023-12-20T10:17:04;57.97;;;33.55;;
56122;SDS011;42426;46.104;19.656;2023-12-20T10:19:31;51.53;;;31.65;;
56122;SDS011;42426;46.104;19.656;2023-12-20T10:22:03;55.92;;;34.00;;
56122;SDS011;42426;46.104;19.656;2023-12-20T10:24:29;60.58;;;33.70;;
56122;SDS011;42426;46.104;19.656;2023-12-20T10:27:02;64.68;;;35.50;;
56122;SDS011;42426;46.104;19.656;2023-12-20T10:29:32;54.13;;;32.15;;
56122;SDS011;42426;46.104;19.656;2023-12-20T10:31:58;60.97;;;32.63;;
56122;SDS011;42426;46.104;19.656;2023-12-20T10:34:24;53.55;;;34.00;;
56122;SDS011;42426;46.104;19.656;2023-12-20T10:36:52;61.78;;;34.85;;
56122;SDS011;42426;46.104;19.656;2023-12-20T10:39:19;63.92;;;33.75;;
56122;SDS011;42426;46.104;19.656;2023-12-20T10:41:46;61.35;;;33.55;;
56122;SDS011;42426;46.104;19.656;2023-12-20T10:44:13;62.45;;;33.53;;
56122;SDS011;42426;46.104;19.656;2023-12-20T10:46:41;76.07;;;40.60;;
56122;SDS011;42426;46.104;19.656;2023-12-20T10:49:12;69.72;;;34.47;;
56122;SDS011;42426;46.104;19.656;2023-12-20T10:51:40;60.60;;;31.73;;
56122;SDS011;42426;46.104;19.656;2023-12-20T10:54:06;66.30;;;34.80;;
56122;SDS011;42426;46.104;19.656;2023-12-20T10:56:34;66.55;;;32.60;;
56122;SDS011;42426;46.104;19.656;2023-12-20T10:59:01;62.22;;;32.75;;
56122;SDS011;42426;46.104;19.656;2023-12-20T11:01:29;68.63;;;32.85;;
56122;SDS011;42426;46.104;19.656;2023-12-20T11:03:56;65.15;;;35.03;;
56122;SDS011;42426;46.104;19.656;2023-12-20T11:06:32;58.15;;;32.38;;
56122;SDS011;42426;46.104;19.656;2023-12-20T11:09:04;58.75;;;33.60;;
56122;SDS011;42426;46.104;19.656;2023-12-20T11:11:58;65.45;;;33.90;;
56122;SDS011;42426;46.104;19.656;2023-12-20T11:14:25;61.53;;;36.13;;
56122;SDS011;42426;46.104;19.656;2023-12-20T11:17:07;60.92;;;34.38;;
56122;SDS011;42426;46.104;19.656;2023-12-20T11:19:38;64.10;;;33.70;;
56122;SDS011;42426;46.104;19.656;2023-12-20T11:22:04;64.97;;;34.72;;
56122;SDS011;42426;46.104;19.656;2023-12-20T11:24:31;62.95;;;33.70;;
56122;SDS011;42426;46.104;19.656;2023-12-20T11:26:59;64.10;;;32.40;;
56122;SDS011;42426;46.104;19.656;2023-12-20T11:29:33;62.35;;;35.70;;
56122;SDS011;42426;46.104;19.656;2023-12-20T11:32:03;72.68;;;39.13;;
56122;SDS011;42426;46.104;19.656;2023-12-20T11:34:33;68.85;;;39.85;;
56122;SDS011;42426;46.104;19.656;2023-12-20T11:36:59;72.95;;;39.45;;
56122;SDS011;42426;46.104;19.656;2023-12-20T11:39:27;78.82;;;40.20;;
56122;SDS011;42426;46.104;19.656;2023-12-20T11:42:03;79.07;;;41.15;;
56122;SDS011;42426;46.104;19.656;2023-12-20T11:44:30;78.32;;;42.03;;
56122;SDS011;42426;46.104;19.656;2023-12-20T11:46:58;73.85;;;39.47;;
56122;SDS011;42426;46.104;19.656;2023-12-20T11:49:24;74.13;;;38.00;;
56122;SDS011;42426;46.104;19.656;2023-12-20T11:51:51;59.55;;;35.28;;
56122;SDS011;42426;46.104;19.656;2023-12-20T11:54:17;84.35;;;42.53;;
56122;SDS011;42426;46.104;19.656;2023-12-20T11:56:43;69.55;;;39.58;;
56122;SDS011;42426;46.104;19.656;2023-12-20T11:59:09;77.93;;;39.75;;
56122;SDS011;42426;46.104;19.656;2023-12-20T12:01:36;68.68;;;38.30;;
56122;SDS011;42426;46.104;19.656;2023-12-20T12:04:03;77.55;;;39.28;;
56122;SDS011;42426;46.104;19.656;2023-12-20T12:06:29;77.70;;;40.70;;
56122;SDS011;42426;46.104;19.656;2023-12-20T12:08:55;67.47;;;36.75;;
56122;SDS011;42426;46.104;19.656;2023-12-20T12:11:22;63.85;;;34.80;;
56122;SDS011;42426;46.104;19.656;2023-12-20T12:13:48;58.85;;;35.25;;
56122;SDS011;42426;46.104;19.656;2023-12-20T12:16:18;80.55;;;44.25;;
56122;SDS011;42426;46.104;19.656;2023-12-20T12:18:44;69.30;;;39.15;;
56122;SDS011;42426;46.104;19.656;2023-12-20T12:21:10;64.38;;;36.65;;
56122;SDS011;42426;46.104;19.656;2023-12-20T12:23:37;60.67;;;33.35;;
56122;SDS011;42426;46.104;19.656;2023-12-20T12:26:06;65.57;;;37.03;;
56122;SDS011;42426;46.104;19.656;2023-12-20T12:28:34;65.70;;;36.05;;
56122;SDS011;42426;46.104;19.656;2023-12-20T12:31:00;70.65;;;36.90;;
56122;SDS011;42426;46.104;19.656;2023-12-20T12:33:26;77.57;;;44.63;;
56122;SDS011;42426;46.104;19.656;2023-12-20T12:35:52;73.63;;;40.17;;
56122;SDS011;42426;46.104;19.656;2023-12-20T12:38:21;71.53;;;39.20;;
56122;SDS011;42426;46.104;19.656;2023-12-20T12:40:48;55.13;;;31.45;;
56122;SDS011;42426;46.104;19.656;2023-12-20T12:43:15;59.72;;;32.40;;
56122;SDS011;42426;46.104;19.656;2023-12-20T12:45:41;62.30;;;32.50;;
56122;SDS011;42426;46.104;19.656;2023-12-20T12:48:08;79.15;;;38.78;;
56122;SDS011;42426;46.104;19.656;2023-12-20T12:50:34;70.15;;;38.03;;
56122;SDS011;42426;46.104;19.656;2023-12-20T12:53:00;67.60;;;35.72;;
56122;SDS011;42426;46.104;19.656;2023-12-20T12:55:27;51.28;;;29.77;;
56122;SDS011;42426;46.104;19.656;2023-12-20T12:57:54;54.42;;;32.30;;
56122;SDS011;42426;46.104;19.656;2023-12-20T13:00:21;58.80;;;34.65;;
56122;SDS011;42426;46.104;19.656;2023-12-20T13:02:47;65.00;;;32.42;;
56122;SDS011;42426;46.104;19.656;2023-12-20T13:05:14;64.22;;;33.75;;
56122;SDS011;42426;46.104;19.656;2023-12-20T13:07:40;60.53;;;30.52;;
56122;SDS011;42426;46.104;19.656;2023-12-20T13:10:06;58.13;;;32.50;;
56122;SDS011;42426;46.104;19.656;2023-12-20T13:12:32;53.05;;;30.58;;
56122;SDS011;42426;46.104;19.656;2023-12-20T13:14:58;55.65;;;30.65;;
56122;SDS011;42426;46.104;19.656;2023-12-20T13:17:24;66.10;;;32.35;;
56122;SDS011;42426;46.104;19.656;2023-12-20T13:19:51;65.07;;;33.90;;
56122;SDS011;42426;46.104;19.656;2023-12-20T13:22:17;58.28;;;30.50;;
56122;SDS011;42426;46.104;19.656;2023-12-20T13:24:43;55.13;;;32.83;;
56122;SDS011;42426;46.104;19.656;2023-12-20T13:27:10;58.53;;;33.03;;
56122;SDS011;42426;46.104;19.656;2023-12-20T13:29:37;69.20;;;40.28;;
56122;SDS011;42426;46.104;19.656;2023-12-20T13:32:03;85.78;;;45.45;;
56122;SDS011;42426;46.104;19.656;2023-12-20T13:34:29;64.32;;;35.35;;
56122;SDS011;42426;46.104;19.656;2023-12-20T13:36:55;59.53;;;33.45;;
56122;SDS011;42426;46.104;19.656;2023-12-20T13:39:21;68.40;;;34.88;;
56122;SDS011;42426;46.104;19.656;2023-12-20T13:41:48;59.47;;;32.95;;
56122;SDS011;42426;46.104;19.656;2023-12-20T13:44:14;61.15;;;31.92;;
56122;SDS011;42426;46.104;19.656;2023-12-20T13:46:40;60.97;;;31.38;;
56122;SDS011;42426;46.104;19.656;2023-12-20T13:49:06;112.25;;;57.55;;
56122;SDS011;42426;46.104;19.656;2023-12-20T13:51:33;85.13;;;45.95;;
56122;SDS011;42426;46.104;19.656;2023-12-20T13:53:59;88.65;;;47.40;;
56122;SDS011;42426;46.104;19.656;2023-12-20T13:56:26;57.00;;;32.72;;
56122;SDS011;42426;46.104;19.656;2023-12-20T13:58:52;61.03;;;33.33;;
56122;SDS011;42426;46.104;19.656;2023-12-20T14:01:18;52.00;;;30.63;;
56122;SDS011;42426;46.104;19.656;2023-12-20T14:03:45;56.15;;;32.38;;
56122;SDS011;42426;46.104;19.656;2023-12-20T14:06:11;47.83;;;27.65;;
56122;SDS011;42426;46.104;19.656;2023-12-20T14:08:38;43.17;;;26.23;;
56122;SDS011;42426;46.104;19.656;2023-12-20T14:11:05;42.33;;;24.58;;
56122;SDS011;42426;46.104;19.656;2023-12-20T14:13:31;42.78;;;24.80;;
56122;SDS011;42426;46.104;19.656;2023-12-20T14:15:57;46.83;;;24.17;;
56122;SDS011;42426;46.104;19.656;2023-12-20T14:18:25;40.17;;;24.92;;
56122;SDS011;42426;46.104;19.656;2023-12-20T14:20:53;42.42;;;22.98;;
56122;SDS011;42426;46.104;19.656;2023-12-20T14:23:20;46.22;;;23.75;;